createdAt,value
2022-10-18T00:02:20.756Z,13.22
2022-10-18T00:05:23.029Z,13.14
2022-10-18T00:08:25.445Z,13.14
2022-10-18T00:11:27.703Z,13.03
2022-10-18T00:14:30.173Z,13.05
2022-10-18T00:17:34.892Z,13.19
2022-10-18T00:20:37.198Z,13.19
2022-10-18T00:23:41.981Z,13.23
2022-10-18T00:26:44.665Z,13.21
2022-10-18T00:29:46.966Z,13.22
2022-10-18T00:32:49.236Z,13.22
2022-10-18T00:35:51.482Z,13.25
2022-10-18T00:38:54.018Z,13.15
2022-10-18T00:41:56.438Z,13.09
2022-10-18T00:45:18.874Z,12.97
2022-10-18T00:48:21.510Z,12.91
2022-10-18T00:51:27.829Z,12.93
2022-10-18T00:54:31.788Z,12.96
2022-10-18T00:57:34.719Z,13.02
2022-10-18T01:00:39.523Z,13.04
2022-10-18T01:03:42.045Z,12.98
2022-10-18T01:10:09.128Z,13.01
2022-10-18T01:13:49.778Z,13.00
2022-10-18T01:17:13.825Z,12.97
2022-10-18T01:20:31.334Z,12.97
2022-10-18T01:23:37.162Z,12.88
2022-10-18T01:26:48.477Z,12.74
2022-10-18T01:29:59.335Z,12.87
2022-10-18T01:33:15.639Z,12.81
2022-10-18T01:36:20.595Z,12.85
2022-10-18T01:39:26.955Z,12.83
2022-10-18T01:42:29.816Z,12.77
2022-10-18T01:45:33.005Z,12.80
2022-10-18T01:48:38.082Z,12.64
2022-10-18T01:51:40.422Z,12.67
2022-10-18T01:54:46.157Z,12.61
2022-10-18T01:58:06.265Z,12.63
2022-10-18T02:01:20.266Z,12.72
2022-10-18T02:04:31.611Z,12.73
2022-10-18T02:07:39.666Z,12.65
2022-10-18T02:10:45.681Z,12.64
2022-10-18T02:13:55.106Z,12.59
2022-10-18T02:16:58.826Z,12.62
2022-10-18T02:20:02.788Z,12.65
2022-10-18T02:23:07.806Z,12.58
2022-10-18T02:26:10.133Z,12.42
2022-10-18T02:29:12.650Z,12.47
2022-10-18T02:32:21.057Z,12.50
2022-10-18T02:35:30.170Z,12.53
2022-10-18T02:38:32.972Z,12.38
2022-10-18T02:41:35.282Z,12.51
2022-10-18T02:44:38.842Z,12.54
2022-10-18T02:47:41.207Z,12.50
2022-10-18T02:50:43.473Z,12.46
2022-10-18T02:53:45.780Z,12.38
2022-10-18T02:56:48.173Z,12.42
2022-10-18T02:59:50.716Z,12.40
2022-10-18T03:02:53.928Z,12.37
2022-10-18T03:05:56.271Z,12.33
2022-10-18T03:08:58.580Z,12.35
2022-10-18T03:12:00.881Z,12.31
2022-10-18T03:15:03.321Z,12.31
2022-10-18T03:18:05.717Z,12.26
2022-10-18T03:21:08.789Z,12.25
2022-10-18T03:24:11.092Z,12.19
2022-10-18T03:27:13.429Z,12.12
2022-10-18T03:30:15.815Z,12.10
2022-10-18T03:33:18.516Z,12.17
2022-10-18T03:36:20.839Z,12.14
2022-10-18T03:39:23.177Z,12.07
2022-10-18T03:42:25.575Z,12.14
2022-10-18T03:45:31.175Z,12.17
2022-10-18T03:48:34.076Z,12.31
2022-10-18T03:51:36.377Z,12.19
2022-10-18T03:54:38.721Z,12.21
2022-10-18T03:57:41.064Z,12.35
2022-10-18T04:00:43.376Z,12.32
2022-10-18T04:03:45.760Z,12.19
2022-10-18T04:06:48.089Z,12.17
2022-10-18T04:09:50.353Z,12.20
2022-10-18T04:12:52.798Z,12.02
2022-10-18T04:15:55.054Z,12.05
2022-10-18T04:18:57.373Z,12.02
2022-10-18T04:21:59.721Z,11.94
2022-10-18T04:25:02.009Z,11.97
2022-10-18T04:28:04.845Z,11.86
2022-10-18T04:31:07.193Z,11.72
2022-10-18T04:34:10.394Z,11.76
2022-10-18T04:37:12.581Z,11.69
2022-10-18T04:40:14.970Z,11.63
2022-10-18T04:43:17.452Z,11.68
2022-10-18T04:46:19.744Z,11.63
2022-10-18T04:49:21.965Z,11.60
2022-10-18T04:52:24.431Z,11.60
2022-10-18T04:55:26.762Z,11.64
2022-10-18T04:58:28.993Z,11.67
2022-10-18T05:01:31.306Z,11.75
2022-10-18T05:04:33.788Z,11.67
2022-10-18T05:07:36.161Z,11.88
2022-10-18T05:10:38.542Z,11.84
2022-10-18T05:13:40.868Z,11.84
2022-10-18T05:16:43.144Z,11.79
2022-10-18T05:19:45.478Z,11.82
2022-10-18T05:22:47.805Z,11.94
2022-10-18T05:25:50.061Z,11.97
2022-10-18T05:28:52.425Z,12.07
2022-10-18T05:31:54.781Z,12.02
2022-10-18T05:34:57.002Z,12.04
2022-10-18T05:37:59.377Z,12.09
2022-10-18T05:41:04.521Z,12.17
2022-10-18T05:44:07.530Z,12.27
2022-10-18T05:47:10.021Z,12.23
2022-10-18T05:50:12.301Z,12.35
2022-10-18T05:53:35.182Z,12.31
2022-10-18T05:56:36.780Z,12.41
2022-10-18T05:59:39.114Z,12.48
2022-10-18T06:02:41.441Z,12.56
2022-10-18T06:05:43.789Z,13.05
2022-10-18T06:08:49.226Z,13.33
2022-10-18T06:11:51.495Z,13.59
2022-10-18T06:14:53.765Z,13.57
2022-10-18T06:17:56.321Z,13.53
2022-10-18T06:20:59.584Z,13.47
2022-10-18T06:24:01.928Z,13.51
2022-10-18T06:27:09.098Z,13.43
2022-10-18T06:30:11.832Z,13.46
2022-10-18T06:33:14.122Z,13.51
2022-10-18T06:36:18.996Z,13.59
2022-10-18T06:39:21.305Z,13.62
2022-10-18T06:42:23.557Z,13.62
2022-10-18T06:45:25.856Z,13.75
2022-10-18T06:48:28.125Z,13.89
2022-10-18T06:51:30.387Z,14.01
2022-10-18T06:54:32.626Z,14.35
2022-10-18T06:57:34.913Z,14.86
2022-10-18T07:00:37.304Z,15.24
2022-10-18T07:03:39.680Z,15.68
2022-10-18T07:06:41.899Z,15.96
2022-10-18T07:09:46.088Z,16.37
2022-10-18T07:12:48.395Z,16.60
2022-10-18T07:16:12.911Z,16.67
2022-10-18T07:19:18.035Z,16.99
2022-10-18T07:22:20.337Z,17.32
2022-10-18T07:25:24.792Z,17.65
2022-10-18T07:28:29.823Z,17.93
2022-10-18T07:31:33.457Z,18.00
2022-10-18T07:34:35.869Z,18.24
2022-10-18T07:37:38.194Z,18.32
2022-10-18T07:40:40.413Z,18.36
2022-10-18T07:43:47.544Z,18.63
2022-10-18T07:46:49.769Z,18.79
2022-10-18T07:49:52.043Z,19.07
2022-10-18T07:52:54.397Z,18.90
2022-10-18T07:56:02.331Z,18.98
2022-10-18T07:59:06.916Z,19.30
2022-10-18T08:02:09.527Z,19.25
2022-10-18T08:05:11.798Z,19.42
2022-10-18T08:08:14.083Z,19.39
2022-10-18T08:11:18.924Z,19.57
2022-10-18T08:14:21.201Z,19.79
2022-10-18T08:17:23.486Z,19.83
2022-10-18T08:20:30.808Z,20.02
2022-10-18T08:23:34.438Z,20.14
2022-10-18T08:26:36.748Z,20.17
2022-10-18T08:29:39.096Z,19.98
2022-10-18T08:32:41.439Z,19.89
2022-10-18T08:35:43.712Z,19.72
2022-10-18T08:38:46.184Z,19.68
2022-10-18T08:41:54.795Z,19.67
2022-10-18T08:44:58.098Z,19.90
2022-10-18T08:48:00.424Z,19.89
2022-10-18T08:51:04.559Z,19.93
2022-10-18T08:54:12.144Z,20.44
2022-10-18T08:57:18.120Z,20.52
2022-10-18T09:00:22.759Z,20.62
2022-10-18T09:03:43.913Z,20.86
2022-10-18T09:07:19.974Z,21.03
2022-10-18T09:14:13.468Z,21.50
2022-10-18T09:17:16.258Z,21.85
2022-10-18T09:20:29.035Z,21.94
2022-10-18T09:23:49.641Z,22.07
2022-10-18T09:26:57.470Z,22.04
2022-10-18T09:30:20.929Z,22.01
2022-10-18T09:33:34.657Z,22.17
2022-10-18T09:36:38.800Z,22.27
2022-10-18T09:39:41.365Z,22.46
2022-10-18T09:42:53.436Z,22.47
2022-10-18T09:45:55.942Z,22.68
2022-10-18T09:49:01.845Z,22.75
2022-10-18T09:52:09.381Z,22.68
2022-10-18T09:55:19.396Z,22.86
2022-10-18T09:58:23.327Z,22.54
2022-10-18T10:01:27.567Z,22.68
2022-10-18T10:04:29.895Z,23.09
2022-10-18T10:07:42.685Z,23.11
2022-10-18T10:10:48.154Z,23.24
2022-10-18T10:13:50.426Z,23.14
2022-10-18T10:16:59.226Z,23.06
2022-10-18T10:20:20.818Z,23.04
2022-10-18T10:23:26.890Z,23.29
2022-10-18T10:26:36.668Z,23.16
2022-10-18T10:29:53.857Z,23.37
2022-10-18T10:32:57.041Z,23.14
2022-10-18T10:36:01.273Z,23.36
2022-10-18T10:39:04.916Z,23.69
2022-10-18T10:42:13.711Z,23.62
2022-10-18T10:45:16.136Z,23.61
2022-10-18T10:48:19.981Z,23.82
2022-10-18T10:51:33.049Z,23.52
2022-10-18T10:54:37.342Z,23.53
2022-10-18T10:57:39.681Z,23.55
2022-10-18T11:00:44.384Z,23.38
2022-10-18T11:03:48.873Z,23.02
2022-10-18T11:06:57.606Z,23.27
2022-10-18T11:10:13.526Z,23.53
2022-10-18T11:13:23.202Z,23.81
2022-10-18T11:17:07.713Z,23.56
2022-10-18T11:20:22.758Z,23.85
2022-10-18T11:23:32.009Z,24.05
2022-10-18T11:26:53.743Z,24.00
2022-10-18T11:29:59.440Z,23.74
2022-10-18T11:33:02.020Z,23.98
2022-10-18T11:36:09.366Z,24.04
2022-10-18T11:39:30.277Z,24.18
2022-10-18T11:42:53.628Z,24.02
2022-10-18T11:46:24.209Z,23.96
2022-10-18T11:49:54.147Z,23.86
2022-10-18T11:53:07.842Z,23.71
2022-10-18T11:56:13.146Z,23.86
2022-10-18T11:59:56.833Z,23.80
2022-10-18T12:03:14.123Z,23.55
2022-10-18T12:06:19.610Z,23.66
2022-10-18T12:09:27.906Z,23.82
2022-10-18T12:12:33.922Z,23.82
2022-10-18T12:15:39.433Z,23.68
2022-10-18T12:18:48.916Z,23.63
2022-10-18T12:21:51.685Z,23.77
2022-10-18T12:24:54.063Z,23.79
2022-10-18T12:28:06.760Z,23.80
2022-10-18T12:31:28.353Z,23.73
2022-10-18T12:34:44.174Z,23.69
2022-10-18T12:37:55.607Z,23.82
2022-10-18T12:40:59.103Z,23.78
2022-10-18T12:44:05.966Z,23.77
2022-10-18T12:47:22.135Z,23.69
2022-10-18T12:50:50.831Z,23.56
2022-10-18T12:54:02.028Z,23.41
2022-10-18T12:57:06.905Z,23.23
2022-10-18T13:00:31.656Z,23.24
2022-10-18T13:03:55.753Z,23.25
2022-10-18T13:06:59.674Z,23.19
2022-10-18T13:10:08.040Z,23.22
2022-10-18T13:13:38.714Z,23.16
2022-10-18T13:17:02.345Z,22.95
2022-10-18T13:20:27.110Z,22.97
2022-10-18T13:23:56.178Z,22.87
2022-10-18T13:27:31.113Z,22.76
2022-10-18T13:30:47.207Z,22.69
2022-10-18T13:33:49.955Z,22.65
2022-10-18T13:37:02.838Z,22.71
2022-10-18T13:40:21.834Z,22.67
2022-10-18T13:43:53.048Z,22.59
2022-10-18T13:46:55.395Z,22.56
2022-10-18T13:50:35.017Z,22.53
2022-10-18T13:53:51.163Z,22.55
2022-10-18T13:56:56.924Z,22.52
2022-10-18T14:00:21.045Z,22.45
2022-10-18T14:03:58.578Z,22.23
2022-10-18T14:07:03.462Z,22.09
2022-10-18T14:10:10.453Z,22.00
2022-10-18T14:13:21.074Z,21.84
2022-10-18T14:16:52.674Z,21.71
2022-10-18T14:20:48.976Z,21.57
2022-10-18T14:23:52.742Z,21.34
2022-10-18T14:27:20.562Z,21.35
2022-10-18T14:30:23.072Z,21.23
2022-10-18T14:33:28.256Z,21.20
2022-10-18T14:36:40.001Z,21.02
2022-10-18T14:39:42.277Z,20.86
2022-10-18T14:42:48.607Z,20.76
2022-10-18T14:45:50.879Z,20.80
2022-10-18T14:48:59.289Z,20.73
2022-10-18T14:52:01.706Z,20.57
2022-10-18T14:55:04.348Z,20.52
2022-10-18T14:58:15.286Z,20.43
2022-10-18T15:01:19.590Z,20.39
2022-10-18T15:04:27.701Z,20.32
2022-10-18T15:07:32.595Z,20.32
2022-10-18T15:10:35.597Z,20.33
2022-10-18T15:13:47.104Z,20.22
2022-10-18T15:16:49.993Z,20.21
2022-10-18T15:20:06.252Z,20.14
2022-10-18T15:23:26.578Z,20.09
2022-10-18T15:26:30.292Z,20.05
2022-10-18T15:29:35.300Z,19.96
2022-10-18T15:32:37.993Z,19.96
2022-10-18T15:35:43.425Z,19.98
2022-10-18T15:38:47.664Z,19.85
2022-10-18T15:41:59.547Z,19.82
2022-10-18T15:45:01.812Z,19.75
2022-10-18T15:48:09.280Z,19.70
2022-10-18T15:51:49.568Z,19.63
2022-10-18T15:54:51.859Z,19.59
2022-10-18T15:57:54.213Z,19.56
2022-10-18T16:00:59.001Z,19.42
2022-10-18T16:04:05.179Z,19.31
2022-10-18T16:07:09.620Z,19.15
2022-10-18T16:10:15.509Z,18.98
2022-10-18T16:13:18.530Z,18.74
2022-10-18T16:16:25.876Z,18.64
2022-10-18T16:19:28.151Z,18.47
2022-10-18T16:22:34.701Z,18.27
2022-10-18T16:25:39.287Z,18.10
2022-10-18T16:28:42.326Z,18.04
2022-10-18T16:31:46.711Z,17.82
2022-10-18T16:34:48.952Z,17.71
2022-10-18T16:37:51.181Z,17.61
2022-10-18T16:40:53.838Z,17.54
2022-10-18T16:43:56.161Z,17.39
2022-10-18T16:46:58.424Z,17.25
2022-10-18T16:50:06.462Z,17.20
2022-10-18T16:53:09.282Z,17.12
2022-10-18T16:56:17.461Z,17.02
2022-10-18T16:59:29.071Z,16.96
2022-10-18T17:02:31.720Z,16.95
2022-10-18T17:05:34.487Z,16.86
2022-10-18T17:08:36.748Z,16.82
2022-10-18T17:11:38.981Z,16.73
2022-10-18T17:14:41.280Z,16.58
2022-10-18T17:17:43.599Z,16.51
2022-10-18T17:20:46.296Z,16.53
2022-10-18T17:23:48.950Z,16.44
2022-10-18T17:26:51.249Z,16.43
2022-10-18T17:29:53.537Z,16.29
2022-10-18T17:32:55.911Z,16.27
2022-10-18T17:35:58.213Z,16.13
2022-10-18T17:39:00.732Z,16.09
2022-10-18T17:42:02.990Z,16.00
2022-10-18T17:45:05.882Z,15.93
2022-10-18T17:48:08.150Z,15.84
2022-10-18T17:51:11.573Z,15.80
2022-10-18T17:54:13.905Z,15.76
2022-10-18T17:57:16.351Z,15.65
2022-10-18T18:00:18.724Z,15.76
2022-10-18T18:03:21.320Z,15.68
2022-10-18T18:06:31.392Z,15.67
2022-10-18T18:09:33.767Z,15.59
2022-10-18T18:12:36.340Z,15.58
2022-10-18T18:15:38.794Z,15.50
2022-10-18T18:18:41.312Z,15.53
2022-10-18T18:21:43.689Z,15.48
2022-10-18T18:24:45.969Z,15.33
2022-10-18T18:27:48.173Z,15.28
2022-10-18T18:30:50.445Z,15.27
2022-10-18T18:33:54.460Z,15.31
2022-10-18T18:36:56.722Z,15.19
2022-10-18T18:39:59.055Z,15.09
2022-10-18T18:43:12.468Z,15.04
2022-10-18T18:46:25.001Z,14.89
2022-10-18T18:49:27.608Z,14.79
2022-10-18T18:52:30.010Z,14.89
2022-10-18T18:55:32.689Z,14.89
2022-10-18T18:58:36.420Z,14.87
2022-10-18T19:01:38.806Z,14.89
2022-10-18T19:04:41.462Z,14.85
2022-10-18T19:07:43.732Z,14.69
2022-10-18T19:10:49.059Z,14.70
2022-10-18T19:13:51.392Z,14.72
2022-10-18T19:16:55.286Z,14.66
2022-10-18T19:19:59.831Z,14.61
2022-10-18T19:23:02.127Z,14.56
2022-10-18T19:26:37.523Z,14.58
2022-10-18T19:29:40.963Z,14.51
2022-10-18T19:32:43.242Z,14.60
2022-10-18T19:35:45.499Z,14.48
2022-10-18T19:38:47.764Z,14.40
2022-10-18T19:41:52.291Z,14.32
2022-10-18T19:44:54.582Z,14.39
2022-10-18T19:47:56.836Z,14.28
2022-10-18T19:51:08.937Z,14.28
2022-10-18T19:54:13.113Z,14.32
2022-10-18T19:57:15.401Z,14.26
2022-10-18T20:00:19.645Z,14.20
2022-10-18T20:03:23.545Z,14.15
2022-10-18T20:06:26.529Z,14.04
2022-10-18T20:09:29.186Z,14.00
2022-10-18T20:12:31.789Z,14.02
2022-10-18T20:15:34.182Z,14.01
2022-10-18T20:18:36.787Z,13.94
2022-10-18T20:21:39.966Z,13.92
2022-10-18T20:24:42.205Z,13.85
2022-10-18T20:27:44.501Z,13.80
2022-10-18T20:30:46.752Z,13.78
2022-10-18T20:33:54.402Z,13.74
2022-10-18T20:36:56.709Z,13.72
2022-10-18T20:40:00.266Z,13.70
2022-10-18T20:43:03.851Z,13.59
2022-10-18T20:46:07.105Z,13.64
2022-10-18T20:49:13.834Z,13.57
2022-10-18T20:52:16.082Z,13.57
2022-10-18T20:55:18.955Z,13.51
2022-10-18T20:58:21.206Z,13.46
2022-10-18T21:01:31.862Z,13.51
2022-10-18T21:04:35.154Z,13.40
2022-10-18T21:07:39.085Z,13.43
2022-10-18T21:10:41.404Z,13.46
2022-10-18T21:13:43.673Z,13.36
2022-10-18T21:16:46.397Z,13.37
2022-10-18T21:19:48.626Z,13.27
2022-10-18T21:22:51.820Z,13.24
2022-10-18T21:25:54.112Z,13.25
2022-10-18T21:28:58.731Z,13.25
2022-10-18T21:32:02.319Z,13.24
2022-10-18T21:35:05.067Z,13.20
2022-10-18T21:38:07.886Z,13.26
2022-10-18T21:41:11.488Z,13.23
2022-10-18T21:44:14.119Z,13.23
2022-10-18T21:47:16.411Z,13.19
2022-10-18T21:50:18.688Z,13.23
2022-10-18T21:53:21.686Z,13.23
2022-10-18T21:56:33.555Z,13.18
2022-10-18T21:59:35.822Z,13.06
2022-10-18T22:02:38.142Z,13.15
2022-10-18T22:05:40.509Z,13.12
2022-10-18T22:08:45.668Z,13.14
2022-10-18T22:11:52.315Z,13.14
2022-10-18T22:14:54.637Z,13.10
2022-10-18T22:17:56.887Z,13.04
2022-10-18T22:21:05.458Z,13.10
2022-10-18T22:24:09.103Z,13.03
2022-10-18T22:27:11.405Z,13.05
2022-10-18T22:30:13.736Z,13.17
2022-10-18T22:33:16.058Z,13.23
2022-10-18T22:36:18.332Z,13.26
2022-10-18T22:39:20.632Z,13.29
2022-10-18T22:42:22.942Z,13.43
2022-10-18T22:45:25.295Z,13.43
2022-10-18T22:48:27.661Z,13.52
2022-10-18T22:51:30.086Z,13.54
2022-10-18T22:54:32.417Z,13.56
2022-10-18T22:57:34.861Z,13.62
2022-10-18T23:00:38.576Z,13.67
2022-10-18T23:03:40.974Z,13.61
2022-10-18T23:06:43.271Z,13.63
2022-10-18T23:09:45.658Z,13.57
2022-10-18T23:12:47.937Z,13.62
2022-10-18T23:15:50.603Z,13.73
2022-10-18T23:18:57.508Z,13.72
2022-10-18T23:21:59.750Z,13.76
2022-10-18T23:25:04.263Z,13.66
2022-10-18T23:28:06.564Z,13.75
2022-10-18T23:31:11.030Z,13.87
2022-10-18T23:34:13.404Z,13.86
2022-10-18T23:37:15.672Z,13.85
2022-10-18T23:40:18.014Z,13.89
2022-10-18T23:43:20.215Z,13.95
2022-10-18T23:46:22.605Z,13.88
2022-10-18T23:49:24.874Z,13.85
2022-10-18T23:52:27.163Z,13.83
2022-10-18T23:55:29.438Z,13.72
2022-10-18T23:58:33.123Z,13.59
